Have a Safe July 4th! 

Flight Track Log - Related Links

Times and Time Zones

All times are in EDT time to prevent confusion due to time zone crossing. See the N929CP flight status page for this flight to view local times or setup timezone preferences in your user account.

Time Position Orientation Groundspeed Altitude Reporting Facility
EDT Latitude Longitude Course Direction KTS MPH feet Rate Location/Type
Tue 03:17:56 PM 32.4014 -98.6836 79° East 141 162 5,200  Level Fort Worth Center
Tue 03:18:58 PM 32.4111 -98.6328 77° East 141 162 5,800 774 Climbing Fort Worth Center
Tue 03:20:00 PM 32.4175 -98.5867 81° East 147 169 6,800 677 Climbing Fort Worth Center
Tue 03:21:02 PM 32.4239 -98.5292 82° East 147 169 7,200 145 Climbing Fort Worth Center
Tue 03:22:00 PM 32.4202 -98.4517 87° East  Level FlightAware Approximate
Tue 03:22:04 PM 32.4297 -98.4694 83° East 173 199 7,100  Level Fort Worth Center
Tue 03:23:06 PM 32.4306 -98.4072 89° East 180 207 7,200  Climbing Fort Worth Center
Tue 03:24:09 PM 32.4133 -98.3483 109° East 177 204 7,100 -48 Descending Fort Worth Center
Tue 03:25:11 PM 32.3986 -98.2939 108° East 177 204 7,100  Level Fort Worth Center
Tue 03:26:13 PM 32.3839 -98.2328 106° East 177 204 7,100  Level Fort Worth Center
Tue 03:27:15 PM 32.3694 -98.1761 107° East 179 206 7,100  Level Fort Worth Center
Tue 03:28:17 PM 32.3547 -98.1164 106° East 178 205 7,100 48 Level Fort Worth Center
Tue 03:29:19 PM 32.3397 -98.0606 108° East 177 204 7,200  Climbing Fort Worth Center
Tue 03:30:21 PM 32.3258 -98.0042 106° East 177 204 7,100 -48 Descending Fort Worth Center
Tue 03:31:23 PM 32.3111 -97.9444 106° East 177 204 7,100  Level Fort Worth Center
Tue 03:32:25 PM 32.2969 -97.8881 107° East 177 204 7,100  Level Fort Worth Center
Tue 03:33:27 PM 32.2811 -97.8278 107° East 177 204 7,100  Level Fort Worth Center
Tue 03:34:30 PM 32.2661 -97.7717 108° East 180 207 7,100  Level Fort Worth Center
Tue 03:35:32 PM 32.2506 -97.7111 107° East 181 208 7,100  Level Fort Worth Center
Tue 03:36:34 PM 32.2358 -97.6544 107° East 180 207 7,100  Level Fort Worth Center
Tue 03:37:36 PM 32.2200 -97.5953 108° East 180 207 7,100  Level Fort Worth Center
Tue 03:38:38 PM 32.2047 -97.5383 108° East 180 207 7,100  Level Fort Worth Center
Tue 03:39:40 PM 32.1906 -97.4800 106° East 181 208 7,100  Level Fort Worth Center
Tue 03:40:42 PM 32.1739 -97.4172 107° East 181 208 7,100  Level Fort Worth Center
Tue 03:41:16 PM 32.1750 -97.3842 88° East 189 217 7,100  Level Fort Worth Center
Tue 03:41:44 PM 32.1786 -97.3581 81° East 187 215 7,100  Level Fort Worth Center
Tue 03:42:46 PM 32.1839 -97.2981 84° East 187 215 7,100  Level Fort Worth Center
Tue 03:43:49 PM 32.1914 -97.2325 82° East 186 214 7,100  Level Fort Worth Center
Tue 03:44:28 PM 32.1953 -97.1958 83° East 185 213 7,100  Level Fort Worth Center
Tue 03:44:51 PM 32.1983 -97.1733 81° East 186 214 7,100  Level Fort Worth Center
Tue 03:45:53 PM 32.2047 -97.1133 83° East 186 214 7,100  Level Fort Worth Center
Tue 03:46:55 PM 32.2117 -97.0517 82° East 186 214 7,100  Level Fort Worth Center
Tue 03:47:57 PM 32.2186 -96.9903 82° East 186 214 7,100  Level Fort Worth Center
Tue 03:48:59 PM 32.2272 -96.9194 82° East 186 214 7,100  Level Fort Worth Center
Tue 03:50:01 PM 32.2342 -96.8539 83° East 186 214 7,100  Level Fort Worth Center
Tue 03:51:03 PM 32.2408 -96.7925 83° East 187 215 7,100  Level Fort Worth Center
Tue 03:52:05 PM 32.2478 -96.7311 82° East 187 215 7,100  Level Fort Worth Center
Tue 03:53:08 PM 32.2553 -96.6658 82° East 187 215 7,100  Level Fort Worth Center
Tue 03:54:10 PM 32.2614 -96.6056 83° East 187 215 7,100  Level Fort Worth Center
Tue 03:55:12 PM 32.2686 -96.5406 82° East 187 215 7,100  Level Fort Worth Center
Tue 03:56:14 PM 32.2750 -96.4803 83° East 186 214 7,100  Level Fort Worth Center
Tue 03:57:16 PM 32.2831 -96.4167 81° East 185 213 7,100  Level Fort Worth Center
Tue 03:58:18 PM 32.2889 -96.3553 84° East 187 215 7,100  Level Fort Worth Center
Tue 03:59:20 PM 32.2964 -96.2908 82° East 187 215 7,100  Level Fort Worth Center
Tue 04:00:22 PM 32.3028 -96.2297 83° East 186 214 7,100  Level Fort Worth Center
Tue 04:01:24 PM 32.3083 -96.1650 84° East 186 214 7,100  Level Fort Worth Center
Tue 04:02:27 PM 32.3125 -96.1117 85° East 184 212 7,100  Level Fort Worth Center
Tue 04:03:29 PM 32.3203 -96.0500 81° East 184 212 7,100  Level Fort Worth Center
Tue 04:04:31 PM 32.3256 -95.9911 84° East 184 212 7,100  Level Fort Worth Center
Tue 04:05:33 PM 32.3339 -95.9167 82° East 185 213 7,100  Level Fort Worth Center
Tue 04:06:35 PM 32.3406 -95.8567 82° East 185 213 7,100  Level Fort Worth Center
Tue 04:07:37 PM 32.3464 -95.8033 83° East 185 213 7,100  Level Fort Worth Center
Tue 04:08:39 PM 32.3531 -95.7369 83° East 185 213 7,100  Level Fort Worth Center
Tue 04:09:41 PM 32.3603 -95.6772 82° East 185 213 7,100  Level Fort Worth Center
Tue 04:10:43 PM 32.3644 -95.6172 85° East 184 212 7,100  Level Fort Worth Center
Tue 04:11:45 PM 32.3728 -95.5442 82° East 185 213 7,100  Level Fort Worth Center
Tue 04:12:48 PM 32.3786 -95.4844 83° East 185 213 7,100  Level Fort Worth Center
Tue 04:13:50 PM 32.3856 -95.4236 82° East 185 213 7,100  Level Fort Worth Center
Tue 04:14:52 PM 32.3908 -95.3631 84° East 185 213 7,100  Level Fort Worth Center
Tue 04:15:54 PM 32.3975 -95.3022 83° East 185 213 7,100  Level Fort Worth Center
Tue 04:16:56 PM 32.4047 -95.2300 83° East 185 213 7,100  Level Fort Worth Center
Tue 04:17:58 PM 32.4108 -95.1733 83° East 186 214 7,100  Level Fort Worth Center
Tue 04:19:00 PM 32.4161 -95.1133 84° East 186 214 7,100  Level Fort Worth Center
Tue 04:20:02 PM 32.4217 -95.0508 84° East 186 214 7,100  Level Fort Worth Center
Tue 04:21:04 PM 32.4275 -94.9906 83° East 186 214 7,100  Level Fort Worth Center
Tue 04:22:06 PM 32.4347 -94.9156 83° East 186 214 7,100  Level Fort Worth Center
Tue 04:23:09 PM 32.4406 -94.8536 84° East 186 214 7,100  Level Fort Worth Center
Tue 04:24:11 PM 32.4464 -94.7917 84° East 187 215 7,100  Level Fort Worth Center
Tue 04:25:13 PM 32.4522 -94.7311 83° East 187 215 7,100  Level Fort Worth Center
Tue 04:26:15 PM 32.4583 -94.6700 83° East 187 215 7,100  Level Fort Worth Center
Tue 04:27:17 PM 32.4636 -94.6078 84° East 187 215 7,100  Level Fort Worth Center
Tue 04:28:19 PM 32.4719 -94.5319 83° East 187 215 7,100  Level Fort Worth Center
Tue 04:28:54 PM 32.4725 -94.4989 89° East 195 224 7,100 -97 Level Fort Worth Center
Tue 04:29:21 PM 32.4772 -94.4681 80° East 191 220 7,000 -269 Descending Fort Worth Center
Tue 04:30:01 PM 32.4792 -94.4269 87° East 194 223 6,800 -387 Descending Fort Worth Center
Tue 04:30:23 PM 32.4836 -94.3994 79° East 191 220 6,600 -393 Descending Fort Worth Center
Tue 04:31:02 PM 32.4858 -94.3597 86° East 202 232 6,400 -387 Descending Fort Worth Center
Tue 04:31:25 PM 32.4906 -94.3328 78° East 202 232 6,200 -393 Descending Fort Worth Center
Tue 04:32:03 PM 32.4931 -94.2950 86° East 200 230 6,000 -387 Descending Fort Worth Center
Tue 04:32:27 PM 32.4950 -94.2619 86° East 200 230 5,800 -545 Descending Fort Worth Center
Tue 04:33:09 PM 32.4992 -94.2181 84° East 203 234 5,400 -571 Descending Fort Worth Center
Tue 04:33:30 PM 32.5019 -94.1956 82° East 203 234 5,200 -689 Descending Fort Worth Center
Tue 04:34:10 PM 32.5039 -94.1511 87° East 204 235 4,700 -677 Descending Fort Worth Center
Tue 04:34:32 PM 32.5075 -94.1244 81° East 203 234 4,500 -492 Descending Fort Worth Center
Tue 04:35:11 PM 32.5108 -94.0864 84° East 201 231 4,200 -581 Descending Fort Worth Center
Tue 04:35:34 PM 32.5144 -94.0597 81° East 201 231 3,900 -590 Descending Fort Worth Center
Tue 04:36:12 PM 32.5175 -94.0217 85° East 200 230 3,600 -581 Descending Fort Worth Center
Tue 04:36:36 PM 32.5197 -93.9936 85° East 202 232 3,300 -667 Descending Fort Worth Center
Tue 04:37:06 PM 32.5225 -93.9594 84° East 200 230 3,000 -677 Descending Fort Worth Center
Tue 04:37:38 PM 32.5261 -93.9239 83° East 201 231 2,600 -689 Descending Fort Worth Center
Tue 04:38:07 PM 32.5272 -93.8950 87° East 200 230 2,300 -484 Descending Fort Worth Center
Tue 04:38:40 PM 32.5317 -93.8594 82° East 196 226 2,100 -179 Descending Fort Worth Center
Tue 04:39:14 PM 32.5336 -93.8253 86° East 188 216 2,100 -290 Level Fort Worth Center
Tue 04:39:42 PM 32.5422 -93.7972 70° East 186 214 1,800 -982 Descending Fort Worth Center
Tue 04:40:09 PM 32.5558 -93.7789 49° Northeast 170 196 1,200 -1,258 Descending Fort Worth Center
Tue 04:40:44 PM 32.5511 -93.7547 103° East 149 171 500 -1,200 Descending Fort Worth Center
Tue 04:42:00 PM 32.5402 -93.7450 90° East  Level Estimated
Tue 04:49:00 PM 32.5402 -93.7450 90° East  Level Estimated

Login

Don't have an account? Register now (free) for customized features, flight alerts, and more!